Airfield :
LOGIN :

Register | Disclaimer

   EN    FR    IT 

 










Legend :    VFR   Marginal VFR   IFR   Intensive IFR   Very Intensive IFR
Visi :
Ceiling :
>= 8 km
>= 3000ft
5 to 8 km
1000 to 3000 ft
1500m to 5 km
500 to 1000 ft
800 to 1500m
200 to 500 ft
< 800m
< 200 ft
Symbols :   Thunderstorms  Fog  Heavy snow  Heavy precipitations  Wind > 20 kt
SIGMETs :     Misc.  Thunderstorms  Icing  Turbulence  Mountain Waves  Volcanic Ashes







- Airport Elevation : 24 ft
- IATA code : FAO


LPFR - Faro

CURRENT METAR :
  • 171300Z 07009KT 9999 BKN014 BKN017 14/10 Q1020

EXPIRED METARs :
  • 171230Z 07011KT 9999 BKN014 BKN017 14/10 Q1021
  • 171200Z 08011KT 9999 BKN014 BKN022 14/10 Q1021
  • 171130Z 08010KT 9999 SCT014 BKN016 14/10 Q1021
  • 171100Z 07009KT 9999 FEW014 BKN017 14/10 Q1021
  • 171030Z 07011G25KT 9999 FEW014 BKN017 14/10 Q1021

TAF AMD TAF LPFR
Valid from the 17 at 12:00 until the 18 at 12:00 UTC


171230Z 1712/1812 07012KT 9999 SCT012 BKN020
TEMPO 1712/1718 BKN015
BECMG 1715/1718 14013KT
TEMPO 1718/1807 5000 RA SCT006 BKN012
BECMG 1722/1724 19005KT
BECMG 1803/1805 24007KT
BECMG 1807/1809 VRB05KT SCT020
TEMPO 1807/1812 5000 SHRA BKN015 FEW025TCU
No reported NOTAMs for that airfield.



MET'MAP, your aeronautical weather chart ! - Copyright ORBIFLY December 2007 - Disclaimer

ORBIFLY MET'MAP TEAM :

Programming & Development : Alexandra Zaïnal
Concept & Development : Baudouin d'Aumeries
Co-Development & Prog : Marc-Olivier Méhu
Technical & hardware support : Manuel Goepfert

Contact : metmap@orbifly.com




SOURCES & CREDITS :

   NOAA